Time;durP1;ratioP1;P1;durP2;ratioP2;P2;SDS_P1;SDS_P2;PMS_P1;PMS_P2;Temp;Humidity;BMP_temperature;BMP_pressure;BME280_temperature;BME280_humidity;BME280_pressure;Samples;Min_cycle;Max_cycle;Signal;HPM_P1;HPM_P2
2023/09/08 00:03:48;;;;;;;;;;;;;;;23.32;49.96;95964.03;10507017;28;1415;-62
2023/09/08 00:08:48;;;;;;;;;;;;;;;23.33;49.74;95964.78;10520457;28;1078;-62
2023/09/08 00:13:50;;;;;;;;;;;;;;;23.33;49.74;95959.50;10508418;28;1914;-62
2023/09/08 00:18:50;;;;;;;;;;;;;;;23.32;49.61;95965.88;10503326;28;1499;-62
2023/09/08 00:23:50;;;;;;;;;;;;;;;23.33;49.75;95964.78;10549514;28;2282;-62
2023/09/08 00:28:51;;;;;;;;;;;;;;;23.33;49.83;95959.50;10523199;28;1727;-62
2023/09/08 00:33:51;;;;;;;;;;;;;;;23.33;49.81;95956.84;10532836;28;1902;-62
2023/09/08 00:38:51;;;;;;;;;;;;;;;23.32;49.79;95952.66;10525665;28;1878;-62
2023/09/08 00:43:51;;;;;;;;;;;;;;;23.33;49.67;95948.91;10523270;28;5059;-62
2023/09/08 00:48:52;;;;;;;;;;;;;;;23.32;49.50;95945.50;10542298;28;1105;-61
2023/09/08 00:53:52;;;;;;;;;;;;;;;23.31;49.53;95946.53;10546709;28;1961;-61
2023/09/08 00:58:53;;;;;;;;;;;;;;;23.32;49.71;95956.09;10535335;28;1530;-62
2023/09/08 01:03:53;;;;;;;;;;;;;;;23.32;49.70;95957.94;10526822;28;1054;-62
2023/09/08 01:08:53;;;;;;;;;;;;;;;23.32;49.82;95957.94;10515099;28;1506;-62
2023/09/08 01:13:56;;;;;;;;;;;;;;;23.31;49.59;95954.47;10495199;28;1897;-61
2023/09/08 01:18:56;;;;;;;;;;;;;;;23.31;49.88;95951.03;10539098;28;2322;-62
2023/09/08 01:24:17;;;;;;;;;;;;;;;23.32;49.77;95950.00;10522423;28;1783;-61
2023/09/08 01:29:17;;;;;;;;;;;;;;;23.31;49.56;95956.31;10492797;28;1616;-62
2023/09/08 01:34:18;;;;;;;;;;;;;;;23.31;49.46;95946.53;10530406;28;1971;-61
2023/09/08 01:39:18;;;;;;;;;;;;;;;23.31;49.54;95940.44;10518487;28;1649;-62
2023/09/08 01:44:18;;;;;;;;;;;;;;;23.31;49.73;95951.03;10530754;28;5243;-61
2023/09/08 01:49:19;;;;;;;;;;;;;;;23.30;49.51;95954.75;10505326;28;1496;-62
2023/09/08 01:54:19;;;;;;;;;;;;;;;23.30;49.50;95941.53;10511235;28;1981;-62
2023/09/08 01:59:19;;;;;;;;;;;;;;;23.30;49.67;95936.25;10534022;28;1573;-61
2023/09/08 02:04:20;;;;;;;;;;;;;;;23.29;49.46;95938.09;10502917;28;1358;-61
2023/09/08 02:09:20;;;;;;;;;;;;;;;23.29;49.58;95932.81;10537222;28;1578;-62
2023/09/08 02:14:20;;;;;;;;;;;;;;;23.29;49.48;95932.81;10535627;28;2495;-62
2023/09/08 02:19:20;;;;;;;;;;;;;;;23.29;49.44;95935.47;10519642;28;1504;-62
2023/09/08 02:24:21;;;;;;;;;;;;;;;23.29;49.60;95937.31;10526294;28;1620;-61
2023/09/08 02:29:22;;;;;;;;;;;;;;;23.27;49.74;95934.97;10518317;28;1474;-62
2023/09/08 02:34:22;;;;;;;;;;;;;;;23.28;49.61;95936.53;10542382;28;1963;-61
2023/09/08 02:39:23;;;;;;;;;;;;;;;23.28;49.65;95930.47;10525105;28;1502;-61
2023/09/08 02:44:23;;;;;;;;;;;;;;;23.30;49.64;95933.59;10528882;28;1467;-61
2023/09/08 02:49:23;;;;;;;;;;;;;;;23.29;49.46;95932.00;10509747;28;1482;-62
2023/09/08 02:54:24;;;;;;;;;;;;;;;23.29;49.63;95926.72;10512869;28;1967;-62
2023/09/08 02:59:24;;;;;;;;;;;;;;;23.27;49.74;95929.66;10516197;28;1501;-62
2023/09/08 03:04:24;;;;;;;;;;;;;;;23.27;49.73;95940.25;10513915;28;1043;-62
2023/09/08 03:09:24;;;;;;;;;;;;;;;23.28;49.54;95931.25;10531240;28;1297;-61
2023/09/08 03:14:25;;;;;;;;;;;;;;;23.28;49.52;95931.25;10521303;28;2108;-62
2023/09/08 03:19:25;;;;;;;;;;;;;;;23.28;49.70;95930.47;10522866;28;1018;-62
2023/09/08 03:24:25;;;;;;;;;;;;;;;23.28;49.44;95927.81;10516983;28;1419;-62
2023/09/08 03:29:25;;;;;;;;;;;;;;;23.27;49.39;95927.03;10537007;28;1398;-61
2023/09/08 03:34:26;;;;;;;;;;;;;;;23.27;49.58;95929.66;10513039;28;1901;-62
2023/09/08 03:39:26;;;;;;;;;;;;;;;23.27;49.46;95932.31;10508882;28;1372;-62
2023/09/08 03:44:26;;;;;;;;;;;;;;;23.27;49.65;95934.97;10525080;28;5408;-62
2023/09/08 03:49:27;;;;;;;;;;;;;;;23.26;49.48;95927.31;10532666;28;1007;-62
2023/09/08 03:54:27;;;;;;;;;;;;;;;23.26;49.45;95929.97;10515014;28;1918;-61
2023/09/08 03:59:27;;;;;;;;;;;;;;;23.26;49.60;95924.66;10505497;28;1379;-62
2023/09/08 04:04:27;;;;;;;;;;;;;;;23.25;49.56;95925.72;10521044;28;1403;-61
2023/09/08 04:09:28;;;;;;;;;;;;;;;23.26;49.47;95932.59;10516587;28;2022;-62
2023/09/08 04:14:33;;;;;;;;;;;;;;;23.26;49.36;95935.25;10520611;28;1910;-62
2023/09/08 04:19:33;;;;;;;;;;;;;;;23.26;49.18;95937.91;10526897;28;1062;-62
2023/09/08 04:24:36;;;;;;;;;;;;;;;23.25;49.41;95931.00;10531657;28;1514;-62
2023/09/08 04:29:36;;;;;;;;;;;;;;;23.25;49.44;95931.00;10513566;28;1391;-62
2023/09/08 04:34:40;;;;;;;;;;;;;;;23.24;49.14;95932.91;10527919;28;1910;-61
2023/09/08 04:39:40;;;;;;;;;;;;;;;23.25;49.33;95931.00;10510577;28;1655;-62
2023/09/08 04:44:40;;;;;;;;;;;;;;;23.26;49.41;95943.19;10536397;28;5229;-62
2023/09/08 04:49:41;;;;;;;;;;;;;;;23.26;49.32;95948.47;10516236;28;1039;-62
2023/09/08 04:54:41;;;;;;;;;;;;;;;23.24;49.07;95945.31;10532470;28;1914;-62
2023/09/08 04:59:41;;;;;;;;;;;;;;;23.25;49.21;95946.88;10528691;28;1562;-62
2023/09/08 05:04:41;;;;;;;;;;;;;;;23.24;49.16;95948.78;10533851;28;2369;-62
2023/09/08 05:09:43;;;;;;;;;;;;;;;23.25;49.25;95952.19;10523025;28;1163;-62
2023/09/08 05:14:43;;;;;;;;;;;;;;;23.23;49.22;95949.03;10544354;28;1979;-62
2023/09/08 05:19:43;;;;;;;;;;;;;;;23.23;49.21;95956.97;10527643;28;1351;-62
2023/09/08 05:24:44;;;;;;;;;;;;;;;23.24;49.33;95961.19;10525210;28;1631;-62
2023/09/08 05:29:44;;;;;;;;;;;;;;;23.24;49.19;95963.84;10535674;28;1590;-62
2023/09/08 05:34:44;;;;;;;;;;;;;;;23.24;49.25;95966.50;10525542;28;1898;-62
2023/09/08 05:39:44;;;;;;;;;;;;;;;23.23;49.10;95965.69;10518989;28;1416;-62
2023/09/08 05:44:47;;;;;;;;;;;;;;;23.24;49.33;95966.50;10513942;28;5414;-61
2023/09/08 05:49:48;;;;;;;;;;;;;;;23.24;49.31;95971.78;10512181;28;1476;-62
2023/09/08 05:54:48;;;;;;;;;;;;;;;23.23;49.12;95976.28;10517028;28;1977;-62
2023/09/08 05:59:48;;;;;;;;;;;;;;;23.23;49.00;95978.13;10520483;28;2356;-62
2023/09/08 06:04:48;;;;;;;;;;;;;;;23.24;48.99;95982.34;10519321;28;1557;-62
2023/09/08 06:09:49;;;;;;;;;;;;;;;23.23;49.15;95988.69;10516802;28;1672;-62
2023/09/08 06:14:49;;;;;;;;;;;;;;;23.24;49.22;95990.28;10534585;28;1927;-62
2023/09/08 06:19:49;;;;;;;;;;;;;;;23.22;49.32;95984.50;10522768;28;1562;-62
2023/09/08 06:24:50;;;;;;;;;;;;;;;23.23;49.04;95980.75;10534396;28;1493;-61
2023/09/08 06:29:51;;;;;;;;;;;;;;;23.23;49.21;95986.06;10525369;28;1546;-62
2023/09/08 06:34:51;;;;;;;;;;;;;;;23.23;49.26;95988.69;10524131;28;1974;-62
2023/09/08 06:39:53;;;;;;;;;;;;;;;23.24;49.18;95987.66;10534460;28;1478;-63
2023/09/08 06:44:54;;;;;;;;;;;;;;;23.23;49.47;95992.13;10517429;28;5419;-63
2023/09/08 06:49:54;;;;;;;;;;;;;;;23.23;49.18;95997.44;10518360;28;972;-63
2023/09/08 06:54:54;;;;;;;;;;;;;;;23.24;49.43;96003.50;10505290;28;1894;-63
2023/09/08 06:59:54;;;;;;;;;;;;;;;23.24;49.56;96000.88;10518866;28;2096;-61
2023/09/08 07:04:55;;;;;;;;;;;;;;;23.24;49.50;96000.88;10522176;28;1596;-61
2023/09/08 07:09:55;;;;;;;;;;;;;;;23.24;49.27;96000.88;10525580;28;979;-61
2023/09/08 07:14:55;;;;;;;;;;;;;;;23.24;49.50;96003.50;10532833;28;1906;-61
2023/09/08 07:19:56;;;;;;;;;;;;;;;23.24;49.59;95998.22;10506477;28;1044;-61
2023/09/08 07:24:56;;;;;;;;;;;;;;;23.24;49.42;95998.22;10524600;28;1340;-61
2023/09/08 07:29:56;;;;;;;;;;;;;;;23.23;49.57;95997.44;10533689;28;1418;-61
2023/09/08 07:34:56;;;;;;;;;;;;;;;23.23;49.57;95994.00;10528653;28;1898;-61
2023/09/08 07:39:57;;;;;;;;;;;;;;;23.24;49.33;96000.88;10523963;28;1407;-61
2023/09/08 07:44:58;;;;;;;;;;;;;;;23.24;49.33;95993.72;10530591;28;5507;-61
2023/09/08 07:50:16;;;;;;;;;;;;;;;23.24;49.73;95999.03;10521419;28;1043;-61
2023/09/08 07:55:17;;;;;;;;;;;;;;;23.24;49.45;96000.88;10538576;28;2780;-61
2023/09/08 08:00:17;;;;;;;;;;;;;;;23.24;49.42;96003.50;10544052;28;1386;-61
2023/09/08 08:05:17;;;;;;;;;;;;;;;23.24;49.60;96006.94;10542348;28;1374;-61
2023/09/08 08:10:17;;;;;;;;;;;;;;;23.25;49.25;96013.00;10505802;28;1157;-62
2023/09/08 08:15:18;;;;;;;;;;;;;;;23.25;49.47;96010.38;10493434;28;1985;-61
2023/09/08 08:20:19;;;;;;;;;;;;;;;23.25;49.74;96007.72;10522328;28;1524;-61
2023/09/08 08:25:19;;;;;;;;;;;;;;;23.26;49.39;95996.09;10544629;28;947;-61
2023/09/08 08:30:20;;;;;;;;;;;;;;;23.26;49.72;96002.16;10543660;28;1366;-61
2023/09/08 08:35:20;;;;;;;;;;;;;;;23.27;49.39;95992.34;10512524;28;1977;-61
2023/09/08 08:40:20;;;;;;;;;;;;;;;23.27;49.57;95997.63;10509717;28;5216;-61
2023/09/08 08:45:22;;;;;;;;;;;;;;;23.27;49.44;95992.34;10521584;28;1375;-61
2023/09/08 08:50:23;;;;;;;;;;;;;;;23.28;49.45;95997.38;10548113;28;1244;-61
2023/09/08 08:55:25;;;;;;;;;;;;;;;23.29;49.45;95992.84;10549843;28;1909;-61
2023/09/08 09:00:25;;;;;;;;;;;;;;;23.30;49.46;95991.78;10538960;28;1503;-61
2023/09/08 09:05:25;;;;;;;;;;;;;;;23.29;49.55;95982.28;10533232;28;1372;-61
2023/09/08 09:10:25;;;;;;;;;;;;;;;23.30;49.62;95983.84;10530529;28;1114;-61
2023/09/08 09:15:29;;;;;;;;;;;;;;;23.31;49.37;95982.78;10543448;28;1909;-61
2023/09/08 09:20:30;;;;;;;;;;;;;;;23.32;49.62;95979.09;10531531;28;1300;-61
2023/09/08 09:25:30;;;;;;;;;;;;;;;23.32;49.49;95979.09;10508671;28;1146;-61
2023/09/08 09:30:47;;;;;;;;;;;;;;;23.31;49.63;95974.84;10522015;28;1439;-62
2023/09/08 09:35:48;;;;;;;;;;;;;;;23.33;49.72;95975.38;10495624;28;1905;-60
2023/09/08 09:40:48;;;;;;;;;;;;;;;23.35;49.62;95973.22;10521523;28;4981;-61
2023/09/08 09:45:48;;;;;;;;;;;;;;;23.35;49.63;95974.03;10521174;28;2286;-61
2023/09/08 09:50:49;;;;;;;;;;;;;;;23.36;49.60;95970.31;10518688;28;1474;-61
2023/09/08 09:55:49;;;;;;;;;;;;;;;23.36;49.58;95970.31;10489779;28;1959;-61
2023/09/08 10:00:49;;;;;;;;;;;;;;;23.38;49.67;95959.44;10526381;28;1375;-61
2023/09/08 10:05:50;;;;;;;;;;;;;;;23.38;49.75;95956.78;10529477;28;979;-61
2023/09/08 10:10:50;;;;;;;;;;;;;;;23.39;49.68;95950.41;10541961;28;1572;-61
2023/09/08 10:15:50;;;;;;;;;;;;;;;23.39;49.78;95950.41;10537915;28;1977;-61
2023/09/08 10:20:51;;;;;;;;;;;;;;;23.41;49.70;95948.31;10522935;28;1423;-61
2023/09/08 10:25:54;;;;;;;;;;;;;;;23.41;49.69;95946.41;10521570;28;968;-61
2023/09/08 10:30:54;;;;;;;;;;;;;;;23.42;49.57;95947.22;10526429;28;1366;-61
2023/09/08 10:35:55;;;;;;;;;;;;;;;23.42;49.73;95942.72;10512143;28;1979;-61
2023/09/08 10:41:14;;;;;;;;;;;;;;;23.43;49.72;95943.50;10531788;28;5072;-61
2023/09/08 10:46:23;;;;;;;;;;;;;;;23.43;49.90;95940.88;10521069;28;1410;-61
2023/09/08 10:51:24;;;;;;;;;;;;;;;23.45;49.63;95941.38;10535279;28;1479;-61
2023/09/08 10:56:49;;;;;;;;;;;;;;;23.45;49.99;95944.78;10499030;28;1898;-61
2023/09/08 11:01:49;;;;;;;;;;;;;;;23.45;49.95;95936.84;10514734;28;1736;-61
2023/09/08 11:06:52;;;;;;;;;;;;;;;23.47;50.03;95939.22;10533707;28;1372;-62
2023/09/08 11:11:53;;;;;;;;;;;;;;;23.48;49.96;95942.63;10536420;28;1327;-61
2023/09/08 11:16:55;;;;;;;;;;;;;;;23.49;49.97;95941.56;10535726;28;1961;-61
2023/09/08 11:21:56;;;;;;;;;;;;;;;23.49;49.93;95937.06;10500302;28;1368;-61
2023/09/08 11:26:56;;;;;;;;;;;;;;;23.50;50.03;95935.19;10534766;28;1400;-61
2023/09/08 11:31:57;;;;;;;;;;;;;;;23.50;49.86;95935.97;10537508;28;1236;-61
2023/09/08 11:36:57;;;;;;;;;;;;;;;23.51;49.98;95942.06;10515241;28;2322;-61
2023/09/08 11:42:01;;;;;;;;;;;;;;;23.51;49.93;95940.22;10491081;28;5258;-61
2023/09/08 11:47:01;;;;;;;;;;;;;;;23.52;49.87;95930.41;10534621;28;1552;-60
2023/09/08 11:52:02;;;;;;;;;;;;;;;23.53;49.92;95932.78;10521887;28;1612;-61
2023/09/08 11:57:03;;;;;;;;;;;;;;;23.54;49.99;95925.59;10527797;28;1977;-62
2023/09/08 12:02:03;;;;;;;;;;;;;;;23.54;49.92;95930.88;10532876;28;1477;-61
2023/09/08 12:07:04;;;;;;;;;;;;;;;23.54;50.04;95921.09;10512068;28;1582;-61
2023/09/08 12:12:04;;;;;;;;;;;;;;;23.55;50.41;95924.53;10521532;28;1553;-61
2023/09/08 12:17:05;;;;;;;;;;;;;;;23.57;50.16;95917.09;10505950;28;1891;-61
2023/09/08 12:22:07;;;;;;;;;;;;;;;23.58;50.01;95923.94;10550640;28;1396;-61
2023/09/08 12:27:07;;;;;;;;;;;;;;;23.58;50.39;95923.94;10534985;28;1372;-61
2023/09/08 12:32:07;;;;;;;;;;;;;;;23.58;50.14;95913.38;10535856;28;1166;-61
2023/09/08 12:37:10;;;;;;;;;;;;;;;23.59;50.45;95920.25;10517463;28;2334;-61
2023/09/08 12:42:10;;;;;;;;;;;;;;;23.60;50.51;95922.59;10526132;28;1601;-61
2023/09/08 12:47:14;;;;;;;;;;;;;;;23.60;50.49;95916.50;10539009;28;1457;-61
2023/09/08 12:52:14;;;;;;;;;;;;;;;23.61;50.62;95910.94;10510374;28;1569;-61
2023/09/08 12:57:14;;;;;;;;;;;;;;;23.62;50.48;95909.09;10512649;28;1979;-61
2023/09/08 13:02:14;;;;;;;;;;;;;;;23.62;50.49;95909.84;10549542;28;1466;-61
2023/09/08 13:07:15;;;;;;;;;;;;;;;23.62;50.35;95901.91;10533242;28;1560;-61
2023/09/08 13:12:16;;;;;;;;;;;;;;;23.64;50.67;95904.28;10552549;28;1395;-61
2023/09/08 13:17:16;;;;;;;;;;;;;;;23.65;50.76;95895.28;10514726;28;1910;-61
2023/09/08 13:22:16;;;;;;;;;;;;;;;23.65;50.58;95896.06;10513653;28;1356;-61
2023/09/08 13:27:17;;;;;;;;;;;;;;;23.66;50.59;95894.97;10527576;28;1391;-61
2023/09/08 13:32:18;;;;;;;;;;;;;;;23.67;50.87;95891.25;10531194;28;2287;-61
2023/09/08 13:37:18;;;;;;;;;;;;;;;23.67;50.47;95888.63;10524484;28;1914;-61
2023/09/08 13:42:18;;;;;;;;;;;;;;;23.67;50.60;95879.88;10513859;28;5072;-61
2023/09/08 13:47:18;;;;;;;;;;;;;;;23.68;50.67;95884.13;10528997;28;1021;-61
2023/09/08 13:52:19;;;;;;;;;;;;;;;23.69;50.67;95872.44;10535102;28;1439;-61
2023/09/08 13:57:20;;;;;;;;;;;;;;;23.69;50.73;95870.59;10522220;28;1906;-61
2023/09/08 14:02:21;;;;;;;;;;;;;;;23.70;50.62;95864.19;10515517;28;1058;-61
2023/09/08 14:07:21;;;;;;;;;;;;;;;23.70;50.65;95868.72;10537052;28;1467;-61
2023/09/08 14:12:21;;;;;;;;;;;;;;;23.71;50.61;95865.00;10519832;28;1504;-61
2023/09/08 14:17:22;;;;;;;;;;;;;;;23.71;50.62;95860.50;10541079;28;1909;-61
2023/09/08 14:22:22;;;;;;;;;;;;;;;23.72;50.63;95861.28;10515117;28;1355;-61
2023/09/08 14:27:23;;;;;;;;;;;;;;;23.72;50.87;95858.66;10534273;28;2281;-61
2023/09/08 14:32:23;;;;;;;;;;;;;;;23.73;50.48;95857.56;10538694;28;1564;-61
2023/09/08 14:37:23;;;;;;;;;;;;;;;23.74;50.84;95859.13;10504808;28;1984;-61
2023/09/08 14:42:23;;;;;;;;;;;;;;;23.72;50.89;95856.75;10490021;28;5032;-61
2023/09/08 14:47:24;;;;;;;;;;;;;;;23.73;50.74;95855.69;10506352;28;1506;-61
2023/09/08 14:52:24;;;;;;;;;;;;;;;23.73;50.70;95850.41;10515912;28;1375;-62
2023/09/08 14:57:24;;;;;;;;;;;;;;;23.74;50.77;95851.97;10529081;28;1901;-62
2023/09/08 15:02:24;;;;;;;;;;;;;;;23.74;50.62;95851.97;10532254;28;1086;-61
2023/09/08 15:07:25;;;;;;;;;;;;;;;23.73;50.69;95849.63;10535014;28;1407;-61
2023/09/08 15:12:25;;;;;;;;;;;;;;;23.74;50.84;95857.25;10524216;28;1411;-62
2023/09/08 15:17:25;;;;;;;;;;;;;;;23.74;50.82;95859.91;10499050;28;1972;-61
2023/09/08 15:22:26;;;;;;;;;;;;;;;23.75;50.74;95858.84;10519577;28;2365;-61
2023/09/08 15:27:26;;;;;;;;;;;;;;;23.75;50.74;95856.19;10547264;28;1411;-61
2023/09/08 15:32:26;;;;;;;;;;;;;;;23.75;50.56;95848.25;10533234;28;1363;-61
2023/09/08 15:37:26;;;;;;;;;;;;;;;23.75;50.80;95852.75;10544519;28;1901;-61
2023/09/08 15:42:27;;;;;;;;;;;;;;;23.75;50.70;95845.59;10521791;28;5048;-61
2023/09/08 15:47:27;;;;;;;;;;;;;;;23.75;50.63;95850.91;10519852;28;1199;-62
2023/09/08 15:52:27;;;;;;;;;;;;;;;23.74;50.81;95849.31;10524663;28;1443;-61
2023/09/08 15:57:27;;;;;;;;;;;;;;;23.75;50.53;95847.47;10527951;28;1973;-61
2023/09/08 16:02:28;;;;;;;;;;;;;;;23.75;50.62;95845.59;10523693;28;1105;-61
2023/09/08 16:07:28;;;;;;;;;;;;;;;23.76;50.35;95846.41;10523500;28;1511;-61
2023/09/08 16:12:29;;;;;;;;;;;;;;;23.75;50.76;95845.59;10524556;28;1391;-61
2023/09/08 16:17:29;;;;;;;;;;;;;;;23.75;50.66;95840.31;10539843;28;1963;-62
2023/09/08 16:22:29;;;;;;;;;;;;;;;23.74;50.55;95844.00;10538522;28;2600;-61
2023/09/08 16:27:32;;;;;;;;;;;;;;;23.75;50.58;95845.59;10536263;28;1470;-62
2023/09/08 16:32:32;;;;;;;;;;;;;;;23.74;50.46;95840.59;10541183;28;1475;-62
2023/09/08 16:37:32;;;;;;;;;;;;;;;23.75;50.65;95848.25;10535237;28;1905;-62
2023/09/08 16:42:32;;;;;;;;;;;;;;;23.76;50.58;95849.81;10534547;28;5329;-62
2023/09/08 16:47:33;;;;;;;;;;;;;;;23.76;50.55;95843.75;10518351;28;1151;-61
2023/09/08 16:52:33;;;;;;;;;;;;;;;23.76;50.65;95846.41;10522691;28;1487;-61
2023/09/08 16:57:34;;;;;;;;;;;;;;;23.74;50.48;95851.97;10523006;28;1886;-61
2023/09/08 17:02:35;;;;;;;;;;;;;;;23.75;50.54;95850.09;10530783;28;980;-61
2023/09/08 17:07:35;;;;;;;;;;;;;;;23.75;50.67;95850.09;10512969;28;1337;-61
2023/09/08 17:12:35;;;;;;;;;;;;;;;23.74;50.50;95857.25;10516354;28;1475;-64
2023/09/08 17:17:36;;;;;;;;;;;;;;;23.74;50.39;95849.31;10517024;28;2532;-63
2023/09/08 17:22:37;;;;;;;;;;;;;;;23.75;50.54;95855.41;10511964;28;1661;-62
2023/09/08 17:27:40;;;;;;;;;;;;;;;23.75;50.48;95865.97;10528108;28;1466;-62
2023/09/08 17:32:40;;;;;;;;;;;;;;;23.74;50.55;95859.91;10521257;28;1575;-62
2023/09/08 17:37:40;;;;;;;;;;;;;;;23.74;50.52;95859.91;10533643;28;1898;-63
2023/09/08 17:42:41;;;;;;;;;;;;;;;23.75;50.65;95864.13;10524602;28;5095;-62
2023/09/08 17:47:41;;;;;;;;;;;;;;;23.75;50.49;95868.63;10531358;28;1371;-62
2023/09/08 17:52:41;;;;;;;;;;;;;;;23.74;50.48;95870.47;10534235;28;984;-62
2023/09/08 17:57:42;;;;;;;;;;;;;;;23.74;50.45;95881.06;10535958;28;1913;-62
2023/09/08 18:02:42;;;;;;;;;;;;;;;23.74;50.43;95875.78;10530114;28;983;-62
2023/09/08 18:07:44;;;;;;;;;;;;;;;23.75;50.49;95881.88;10533038;28;1363;-62
2023/09/08 18:12:44;;;;;;;;;;;;;;;23.73;50.70;95879.53;10518517;28;2321;-62
2023/09/08 18:17:47;;;;;;;;;;;;;;;23.74;50.48;95875.78;10522378;28;1909;-62
2023/09/08 18:22:47;;;;;;;;;;;;;;;23.74;50.56;95878.44;10518495;28;1312;-62
2023/09/08 18:27:47;;;;;;;;;;;;;;;23.74;50.46;95886.38;10517660;28;1383;-62
2023/09/08 18:32:48;;;;;;;;;;;;;;;23.75;50.26;95877.38;10536282;28;988;-62
2023/09/08 18:37:49;;;;;;;;;;;;;;;23.74;50.56;95880.31;10546014;28;1913;-62
2023/09/08 18:42:49;;;;;;;;;;;;;;;23.74;50.66;95881.06;10531641;28;5067;-62
2023/09/08 18:47:51;;;;;;;;;;;;;;;23.74;50.24;95878.44;10501183;28;983;-62
2023/09/08 18:52:54;;;;;;;;;;;;;;;23.74;50.69;95875.78;10515232;28;1898;-62
2023/09/08 18:57:55;;;;;;;;;;;;;;;23.74;50.57;95883.72;10508986;28;1429;-62
2023/09/08 19:02:56;;;;;;;;;;;;;;;23.74;50.61;95881.06;10535108;28;1419;-62
2023/09/08 19:07:56;;;;;;;;;;;;;;;23.75;50.60;95879.22;10511808;28;2314;-62
2023/09/08 19:12:56;;;;;;;;;;;;;;;23.75;50.61;95882.66;10521453;28;1910;-62
2023/09/08 19:17:57;;;;;;;;;;;;;;;23.75;50.54;95887.16;10520633;28;1478;-62
2023/09/08 19:22:57;;;;;;;;;;;;;;;23.74;50.76;95883.72;10521620;28;1557;-63
2023/09/08 19:27:57;;;;;;;;;;;;;;;23.74;50.61;95891.66;10545921;28;1371;-62
2023/09/08 19:32:57;;;;;;;;;;;;;;;23.75;50.48;95892.44;10533230;28;1968;-63
2023/09/08 19:37:58;;;;;;;;;;;;;;;23.74;50.55;95886.38;10524170;28;1387;-63
2023/09/08 19:42:58;;;;;;;;;;;;;;;23.74;50.53;95888.25;10501577;28;5123;-63
2023/09/08 19:47:58;;;;;;;;;;;;;;;23.74;50.70;95889.00;10492589;28;1044;-63
2023/09/08 19:52:58;;;;;;;;;;;;;;;23.74;50.49;95886.38;10542956;28;1914;-63
2023/09/08 19:57:59;;;;;;;;;;;;;;;23.75;50.47;95887.94;10539012;28;1376;-63
2023/09/08 20:02:59;;;;;;;;;;;;;;;23.74;50.46;95886.38;10532297;28;1029;-63
2023/09/08 20:08:01;;;;;;;;;;;;;;;23.74;50.40;95886.38;10520892;28;2769;-63
2023/09/08 20:13:02;;;;;;;;;;;;;;;23.74;50.36;95886.38;10537305;28;1909;-62
2023/09/08 20:18:02;;;;;;;;;;;;;;;23.75;50.46;95893.25;10528959;28;1050;-62
2023/09/08 20:23:04;;;;;;;;;;;;;;;23.75;50.52;95892.44;10511889;28;1415;-62
2023/09/08 20:28:06;;;;;;;;;;;;;;;23.74;50.60;95886.38;10543917;28;1362;-62
2023/09/08 20:33:06;;;;;;;;;;;;;;;23.74;50.41;95883.72;10509945;28;1917;-63
2023/09/08 20:38:08;;;;;;;;;;;;;;;23.74;50.40;95886.38;10527320;28;1423;-63
2023/09/08 20:43:08;;;;;;;;;;;;;;;23.74;50.50;95886.38;10529166;28;1359;-60
2023/09/08 20:48:08;;;;;;;;;;;;;;;23.75;50.32;95884.50;10496922;28;992;-63
2023/09/08 20:53:08;;;;;;;;;;;;;;;23.74;50.45;95891.66;10531190;28;1981;-63
2023/09/08 20:58:09;;;;;;;;;;;;;;;23.74;50.36;95889.00;10533677;28;1458;-62
2023/09/08 21:03:09;;;;;;;;;;;;;;;23.74;50.46;95883.72;10527074;28;2314;-62
2023/09/08 21:08:09;;;;;;;;;;;;;;;23.74;50.34;95886.38;10529237;28;1556;-63
2023/09/08 21:13:10;;;;;;;;;;;;;;;23.74;50.24;95883.72;10529307;28;1917;-62
2023/09/08 21:18:10;;;;;;;;;;;;;;;23.74;50.49;95891.66;10533804;28;1600;-63
2023/09/08 21:23:10;;;;;;;;;;;;;;;23.75;50.40;95895.09;10534154;28;1557;-62
2023/09/08 21:28:11;;;;;;;;;;;;;;;23.75;50.46;95892.44;10506930;28;1360;-62
2023/09/08 21:33:11;;;;;;;;;;;;;;;23.74;50.48;95886.38;10526047;28;1968;-62
2023/09/08 21:38:11;;;;;;;;;;;;;;;23.75;50.53;95880.00;10512932;28;1343;-63
2023/09/08 21:43:11;;;;;;;;;;;;;;;23.75;50.28;95887.94;10507270;28;1348;-62
2023/09/08 21:48:12;;;;;;;;;;;;;;;23.75;50.67;95879.22;10511884;28;967;-62
2023/09/08 21:53:12;;;;;;;;;;;;;;;23.74;50.41;95878.44;10509782;28;1917;-62
2023/09/08 21:58:12;;;;;;;;;;;;;;;23.75;50.35;95881.88;10522399;28;2412;-62
2023/09/08 22:03:13;;;;;;;;;;;;;;;23.74;50.32;95886.38;10517947;28;1007;-62
2023/09/08 22:08:13;;;;;;;;;;;;;;;23.74;50.35;95881.06;10524488;28;1407;-62
2023/09/08 22:13:13;;;;;;;;;;;;;;;23.74;50.20;95875.78;10520821;28;1980;-62
2023/09/08 22:18:13;;;;;;;;;;;;;;;23.74;50.20;95886.38;10524674;28;1023;-62
2023/09/08 22:23:14;;;;;;;;;;;;;;;23.75;50.24;95868.63;10523571;28;1378;-62
2023/09/08 22:28:14;;;;;;;;;;;;;;;23.75;50.34;95873.94;10521689;28;1375;-62
2023/09/08 22:33:14;;;;;;;;;;;;;;;23.75;50.24;95865.97;10531120;28;1971;-62
2023/09/08 22:38:14;;;;;;;;;;;;;;;23.75;50.46;95866.78;10536402;28;1391;-62
2023/09/08 22:43:15;;;;;;;;;;;;;;;23.75;50.44;95869.44;10501226;28;5068;-62
2023/09/08 22:48:15;;;;;;;;;;;;;;;23.74;50.47;95870.47;10521962;28;1054;-62
2023/09/08 22:53:16;;;;;;;;;;;;;;;23.75;50.37;95864.13;10514746;28;2207;-62
2023/09/08 22:58:16;;;;;;;;;;;;;;;23.75;50.30;95869.44;10528216;28;1562;-61
2023/09/08 23:03:16;;;;;;;;;;;;;;;23.74;50.29;95870.47;10510835;28;1539;-62
2023/09/08 23:08:17;;;;;;;;;;;;;;;23.75;50.28;95865.97;10528762;28;1371;-62
2023/09/08 23:13:17;;;;;;;;;;;;;;;23.76;50.21;95872.88;10518436;28;1910;-62
2023/09/08 23:18:18;;;;;;;;;;;;;;;23.75;50.11;95865.97;10531062;28;1367;-62
2023/09/08 23:23:18;;;;;;;;;;;;;;;23.75;50.50;95864.13;10546720;28;1038;-62
2023/09/08 23:28:18;;;;;;;;;;;;;;;23.74;50.35;95862.53;10549152;28;1362;-62
2023/09/08 23:33:18;;;;;;;;;;;;;;;23.75;50.35;95858.84;10550836;28;1977;-62
2023/09/08 23:38:19;;;;;;;;;;;;;;;23.75;50.55;95856.19;10522216;28;1376;-62
2023/09/08 23:43:19;;;;;;;;;;;;;;;23.74;50.26;95854.59;10546514;28;1371;-62
2023/09/08 23:48:19;;;;;;;;;;;;;;;23.75;50.40;95855.41;10514721;28;2234;-62
2023/09/08 23:53:19;;;;;;;;;;;;;;;23.75;50.33;95852.75;10542161;28;1910;-62
2023/09/08 23:58:20;;;;;;;;;;;;;;;23.75;50.25;95840.31;10524552;28;1295;-61
